sensor_id;sensor_type;location;lat;lon;timestamp;P1;durP1;ratioP1;P2;durP2;ratioP2
10839;SDS011;5473;42.706;23.328;2022-11-23T00:01:11;0.50;;;0.50;;
10839;SDS011;5473;42.706;23.328;2022-11-23T00:03:38;0.40;;;0.40;;
10839;SDS011;5473;42.706;23.328;2022-11-23T00:06:05;0.50;;;0.50;;
10839;SDS011;5473;42.706;23.328;2022-11-23T00:08:32;0.50;;;0.50;;
10839;SDS011;5473;42.706;23.328;2022-11-23T00:10:59;0.50;;;0.50;;
10839;SDS011;5473;42.706;23.328;2022-11-23T00:13:28;0.50;;;0.50;;
10839;SDS011;5473;42.706;23.328;2022-11-23T00:15:54;0.50;;;0.50;;
10839;SDS011;5473;42.706;23.328;2022-11-23T00:18:21;0.50;;;0.50;;
10839;SDS011;5473;42.706;23.328;2022-11-23T00:20:48;0.60;;;0.60;;
10839;SDS011;5473;42.706;23.328;2022-11-23T00:23:15;0.50;;;0.50;;
10839;SDS011;5473;42.706;23.328;2022-11-23T00:25:43;0.50;;;0.50;;
10839;SDS011;5473;42.706;23.328;2022-11-23T00:28:10;0.50;;;0.50;;
10839;SDS011;5473;42.706;23.328;2022-11-23T00:30:39;0.53;;;0.53;;
10839;SDS011;5473;42.706;23.328;2022-11-23T00:33:05;0.50;;;0.50;;
10839;SDS011;5473;42.706;23.328;2022-11-23T00:35:32;0.60;;;0.60;;
10839;SDS011;5473;42.706;23.328;2022-11-23T00:37:59;0.43;;;0.43;;
10839;SDS011;5473;42.706;23.328;2022-11-23T00:40:26;0.60;;;0.60;;
10839;SDS011;5473;42.706;23.328;2022-11-23T00:42:52;0.50;;;0.50;;
10839;SDS011;5473;42.706;23.328;2022-11-23T00:45:19;0.53;;;0.53;;
10839;SDS011;5473;42.706;23.328;2022-11-23T00:47:47;0.40;;;0.40;;
10839;SDS011;5473;42.706;23.328;2022-11-23T00:50:15;0.43;;;0.43;;
10839;SDS011;5473;42.706;23.328;2022-11-23T00:52:42;0.50;;;0.50;;
10839;SDS011;5473;42.706;23.328;2022-11-23T00:55:09;0.57;;;0.57;;
10839;SDS011;5473;42.706;23.328;2022-11-23T00:57:35;0.40;;;0.40;;
10839;SDS011;5473;42.706;23.328;2022-11-23T01:00:02;0.43;;;0.43;;
10839;SDS011;5473;42.706;23.328;2022-11-23T01:02:30;0.50;;;0.50;;
10839;SDS011;5473;42.706;23.328;2022-11-23T01:05:01;0.60;;;0.60;;
10839;SDS011;5473;42.706;23.328;2022-11-23T01:07:28;0.50;;;0.50;;
10839;SDS011;5473;42.706;23.328;2022-11-23T01:09:55;0.40;;;0.40;;
10839;SDS011;5473;42.706;23.328;2022-11-23T01:12:22;0.50;;;0.50;;
10839;SDS011;5473;42.706;23.328;2022-11-23T01:14:51;0.47;;;0.47;;
10839;SDS011;5473;42.706;23.328;2022-11-23T01:17:18;0.50;;;0.50;;
10839;SDS011;5473;42.706;23.328;2022-11-23T01:19:45;0.50;;;0.50;;
10839;SDS011;5473;42.706;23.328;2022-11-23T01:22:13;0.50;;;0.50;;
10839;SDS011;5473;42.706;23.328;2022-11-23T01:24:40;0.60;;;0.60;;
10839;SDS011;5473;42.706;23.328;2022-11-23T01:27:07;0.50;;;0.50;;
10839;SDS011;5473;42.706;23.328;2022-11-23T01:29:35;0.50;;;0.50;;
10839;SDS011;5473;42.706;23.328;2022-11-23T01:32:01;0.47;;;0.47;;
10839;SDS011;5473;42.706;23.328;2022-11-23T01:34:28;0.50;;;0.50;;
10839;SDS011;5473;42.706;23.328;2022-11-23T01:36:55;0.50;;;0.50;;
10839;SDS011;5473;42.706;23.328;2022-11-23T01:39:23;0.50;;;0.50;;
10839;SDS011;5473;42.706;23.328;2022-11-23T01:41:50;0.60;;;0.60;;
10839;SDS011;5473;42.706;23.328;2022-11-23T01:44:21;0.50;;;0.50;;
10839;SDS011;5473;42.706;23.328;2022-11-23T01:46:49;0.50;;;0.50;;
10839;SDS011;5473;42.706;23.328;2022-11-23T01:49:16;0.50;;;0.50;;
10839;SDS011;5473;42.706;23.328;2022-11-23T01:51:44;0.50;;;0.50;;
10839;SDS011;5473;42.706;23.328;2022-11-23T01:54:15;0.60;;;0.60;;
10839;SDS011;5473;42.706;23.328;2022-11-23T01:56:49;0.40;;;0.40;;
10839;SDS011;5473;42.706;23.328;2022-11-23T01:59:19;0.50;;;0.50;;
10839;SDS011;5473;42.706;23.328;2022-11-23T02:01:48;0.50;;;0.50;;
10839;SDS011;5473;42.706;23.328;2022-11-23T02:04:16;0.50;;;0.50;;
10839;SDS011;5473;42.706;23.328;2022-11-23T02:06:48;0.40;;;0.40;;
10839;SDS011;5473;42.706;23.328;2022-11-23T02:09:15;0.50;;;0.50;;
10839;SDS011;5473;42.706;23.328;2022-11-23T02:11:43;0.53;;;0.53;;
10839;SDS011;5473;42.706;23.328;2022-11-23T02:14:12;0.50;;;0.50;;
10839;SDS011;5473;42.706;23.328;2022-11-23T02:16:38;0.50;;;0.50;;
10839;SDS011;5473;42.706;23.328;2022-11-23T02:19:06;0.50;;;0.50;;
10839;SDS011;5473;42.706;23.328;2022-11-23T02:21:41;0.40;;;0.40;;
10839;SDS011;5473;42.706;23.328;2022-11-23T02:24:10;0.40;;;0.40;;
10839;SDS011;5473;42.706;23.328;2022-11-23T02:26:44;0.37;;;0.37;;
10839;SDS011;5473;42.706;23.328;2022-11-23T02:29:12;0.50;;;0.50;;
10839;SDS011;5473;42.706;23.328;2022-11-23T02:31:43;0.50;;;0.50;;
10839;SDS011;5473;42.706;23.328;2022-11-23T02:34:10;0.50;;;0.50;;
10839;SDS011;5473;42.706;23.328;2022-11-23T02:36:38;0.47;;;0.47;;
10839;SDS011;5473;42.706;23.328;2022-11-23T02:39:06;0.50;;;0.50;;
10839;SDS011;5473;42.706;23.328;2022-11-23T02:41:38;0.40;;;0.40;;
10839;SDS011;5473;42.706;23.328;2022-11-23T02:44:10;0.43;;;0.43;;
10839;SDS011;5473;42.706;23.328;2022-11-23T02:46:46;0.40;;;0.40;;
10839;SDS011;5473;42.706;23.328;2022-11-23T02:49:13;0.40;;;0.40;;
10839;SDS011;5473;42.706;23.328;2022-11-23T02:51:40;0.50;;;0.50;;
10839;SDS011;5473;42.706;23.328;2022-11-23T02:54:06;0.50;;;0.50;;
10839;SDS011;5473;42.706;23.328;2022-11-23T02:56:34;0.50;;;0.50;;
10839;SDS011;5473;42.706;23.328;2022-11-23T02:59:00;0.57;;;0.57;;
10839;SDS011;5473;42.706;23.328;2022-11-23T03:01:28;0.50;;;0.50;;
10839;SDS011;5473;42.706;23.328;2022-11-23T03:03:55;0.50;;;0.50;;
10839;SDS011;5473;42.706;23.328;2022-11-23T03:06:22;0.50;;;0.50;;
10839;SDS011;5473;42.706;23.328;2022-11-23T03:08:49;0.30;;;0.30;;
10839;SDS011;5473;42.706;23.328;2022-11-23T03:11:15;0.50;;;0.50;;
10839;SDS011;5473;42.706;23.328;2022-11-23T03:13:42;0.50;;;0.50;;
10839;SDS011;5473;42.706;23.328;2022-11-23T03:16:09;0.50;;;0.50;;
10839;SDS011;5473;42.706;23.328;2022-11-23T03:18:38;0.53;;;0.53;;
10839;SDS011;5473;42.706;23.328;2022-11-23T03:21:05;0.50;;;0.50;;
10839;SDS011;5473;42.706;23.328;2022-11-23T03:23:33;0.40;;;0.40;;
10839;SDS011;5473;42.706;23.328;2022-11-23T03:26:00;0.50;;;0.50;;
10839;SDS011;5473;42.706;23.328;2022-11-23T03:28:27;0.50;;;0.50;;
10839;SDS011;5473;42.706;23.328;2022-11-23T03:30:56;0.50;;;0.50;;
10839;SDS011;5473;42.706;23.328;2022-11-23T03:33:23;0.60;;;0.60;;
10839;SDS011;5473;42.706;23.328;2022-11-23T03:35:51;0.50;;;0.50;;
10839;SDS011;5473;42.706;23.328;2022-11-23T03:38:18;0.53;;;0.53;;
10839;SDS011;5473;42.706;23.328;2022-11-23T03:40:45;0.50;;;0.50;;
10839;SDS011;5473;42.706;23.328;2022-11-23T03:43:12;0.50;;;0.50;;
10839;SDS011;5473;42.706;23.328;2022-11-23T03:45:39;0.50;;;0.50;;
10839;SDS011;5473;42.706;23.328;2022-11-23T03:48:06;0.47;;;0.47;;
10839;SDS011;5473;42.706;23.328;2022-11-23T03:50:33;0.50;;;0.50;;
10839;SDS011;5473;42.706;23.328;2022-11-23T03:53:01;0.47;;;0.47;;
10839;SDS011;5473;42.706;23.328;2022-11-23T03:55:28;0.60;;;0.60;;
10839;SDS011;5473;42.706;23.328;2022-11-23T03:57:55;0.40;;;0.40;;
10839;SDS011;5473;42.706;23.328;2022-11-23T04:00:24;0.60;;;0.60;;
10839;SDS011;5473;42.706;23.328;2022-11-23T04:02:51;0.50;;;0.50;;
10839;SDS011;5473;42.706;23.328;2022-11-23T04:05:18;0.40;;;0.40;;
10839;SDS011;5473;42.706;23.328;2022-11-23T04:07:45;0.50;;;0.50;;
10839;SDS011;5473;42.706;23.328;2022-11-23T04:10:14;0.50;;;0.50;;
10839;SDS011;5473;42.706;23.328;2022-11-23T04:12:42;0.50;;;0.50;;
10839;SDS011;5473;42.706;23.328;2022-11-23T04:15:09;0.40;;;0.40;;
10839;SDS011;5473;42.706;23.328;2022-11-23T04:17:36;0.50;;;0.50;;
10839;SDS011;5473;42.706;23.328;2022-11-23T04:20:04;0.60;;;0.60;;
10839;SDS011;5473;42.706;23.328;2022-11-23T04:22:32;0.50;;;0.50;;
10839;SDS011;5473;42.706;23.328;2022-11-23T04:24:58;0.50;;;0.50;;
10839;SDS011;5473;42.706;23.328;2022-11-23T04:27:26;0.50;;;0.50;;
10839;SDS011;5473;42.706;23.328;2022-11-23T04:29:53;0.60;;;0.60;;
10839;SDS011;5473;42.706;23.328;2022-11-23T04:32:20;0.60;;;0.60;;
10839;SDS011;5473;42.706;23.328;2022-11-23T04:34:47;0.50;;;0.50;;
10839;SDS011;5473;42.706;23.328;2022-11-23T04:37:13;0.50;;;0.50;;
10839;SDS011;5473;42.706;23.328;2022-11-23T04:39:40;0.47;;;0.47;;
10839;SDS011;5473;42.706;23.328;2022-11-23T04:42:08;0.50;;;0.50;;
10839;SDS011;5473;42.706;23.328;2022-11-23T04:44:37;0.50;;;0.50;;
10839;SDS011;5473;42.706;23.328;2022-11-23T04:47:04;0.50;;;0.50;;
10839;SDS011;5473;42.706;23.328;2022-11-23T04:49:32;0.60;;;0.60;;
10839;SDS011;5473;42.706;23.328;2022-11-23T04:51:59;0.40;;;0.40;;
10839;SDS011;5473;42.706;23.328;2022-11-23T04:54:25;0.50;;;0.50;;
10839;SDS011;5473;42.706;23.328;2022-11-23T04:56:52;0.53;;;0.53;;
10839;SDS011;5473;42.706;23.328;2022-11-23T04:59:20;0.50;;;0.50;;
10839;SDS011;5473;42.706;23.328;2022-11-23T05:01:48;0.50;;;0.50;;
10839;SDS011;5473;42.706;23.328;2022-11-23T05:04:16;0.50;;;0.50;;
10839;SDS011;5473;42.706;23.328;2022-11-23T05:06:43;0.50;;;0.50;;
10839;SDS011;5473;42.706;23.328;2022-11-23T05:09:10;0.50;;;0.50;;
10839;SDS011;5473;42.706;23.328;2022-11-23T05:11:37;0.50;;;0.50;;
10839;SDS011;5473;42.706;23.328;2022-11-23T05:14:04;0.50;;;0.50;;
10839;SDS011;5473;42.706;23.328;2022-11-23T05:16:30;0.50;;;0.50;;
10839;SDS011;5473;42.706;23.328;2022-11-23T05:18:58;0.57;;;0.57;;
10839;SDS011;5473;42.706;23.328;2022-11-23T05:21:25;0.60;;;0.60;;
10839;SDS011;5473;42.706;23.328;2022-11-23T05:23:52;0.40;;;0.40;;
10839;SDS011;5473;42.706;23.328;2022-11-23T05:26:19;0.40;;;0.40;;
10839;SDS011;5473;42.706;23.328;2022-11-23T05:28:46;0.60;;;0.60;;
10839;SDS011;5473;42.706;23.328;2022-11-23T05:31:12;0.50;;;0.50;;
10839;SDS011;5473;42.706;23.328;2022-11-23T05:33:39;0.60;;;0.60;;
10839;SDS011;5473;42.706;23.328;2022-11-23T05:36:08;0.40;;;0.40;;
10839;SDS011;5473;42.706;23.328;2022-11-23T05:38:37;0.50;;;0.50;;
10839;SDS011;5473;42.706;23.328;2022-11-23T05:41:04;0.50;;;0.50;;
10839;SDS011;5473;42.706;23.328;2022-11-23T05:43:31;0.40;;;0.40;;
10839;SDS011;5473;42.706;23.328;2022-11-23T05:45:58;0.53;;;0.53;;
10839;SDS011;5473;42.706;23.328;2022-11-23T05:48:25;0.50;;;0.50;;
10839;SDS011;5473;42.706;23.328;2022-11-23T05:50:52;0.47;;;0.47;;
10839;SDS011;5473;42.706;23.328;2022-11-23T05:53:20;0.50;;;0.50;;
10839;SDS011;5473;42.706;23.328;2022-11-23T05:55:47;0.43;;;0.43;;
10839;SDS011;5473;42.706;23.328;2022-11-23T05:58:14;0.50;;;0.50;;
10839;SDS011;5473;42.706;23.328;2022-11-23T06:00:41;0.50;;;0.50;;
10839;SDS011;5473;42.706;23.328;2022-11-23T06:03:07;0.50;;;0.50;;
10839;SDS011;5473;42.706;23.328;2022-11-23T06:05:34;0.40;;;0.40;;
10839;SDS011;5473;42.706;23.328;2022-11-23T06:08:01;0.50;;;0.50;;
10839;SDS011;5473;42.706;23.328;2022-11-23T06:10:29;0.50;;;0.50;;
10839;SDS011;5473;42.706;23.328;2022-11-23T06:13:00;0.37;;;0.37;;
10839;SDS011;5473;42.706;23.328;2022-11-23T06:15:27;0.40;;;0.40;;
10839;SDS011;5473;42.706;23.328;2022-11-23T06:17:57;0.40;;;0.40;;
10839;SDS011;5473;42.706;23.328;2022-11-23T06:20:24;0.50;;;0.50;;
10839;SDS011;5473;42.706;23.328;2022-11-23T06:22:51;0.50;;;0.50;;
10839;SDS011;5473;42.706;23.328;2022-11-23T06:25:19;0.40;;;0.40;;
10839;SDS011;5473;42.706;23.328;2022-11-23T06:27:52;0.30;;;0.30;;
10839;SDS011;5473;42.706;23.328;2022-11-23T06:30:19;0.40;;;0.40;;
10839;SDS011;5473;42.706;23.328;2022-11-23T06:32:46;0.40;;;0.40;;
10839;SDS011;5473;42.706;23.328;2022-11-23T06:35:13;0.40;;;0.40;;
10839;SDS011;5473;42.706;23.328;2022-11-23T06:37:40;0.47;;;0.47;;
10839;SDS011;5473;42.706;23.328;2022-11-23T06:40:08;0.40;;;0.40;;
10839;SDS011;5473;42.706;23.328;2022-11-23T06:42:36;0.50;;;0.50;;
10839;SDS011;5473;42.706;23.328;2022-11-23T06:45:05;0.40;;;0.40;;
10839;SDS011;5473;42.706;23.328;2022-11-23T06:47:32;0.40;;;0.40;;
10839;SDS011;5473;42.706;23.328;2022-11-23T06:49:59;0.50;;;0.50;;
10839;SDS011;5473;42.706;23.328;2022-11-23T06:52:26;0.43;;;0.43;;
10839;SDS011;5473;42.706;23.328;2022-11-23T06:54:53;0.40;;;0.40;;
10839;SDS011;5473;42.706;23.328;2022-11-23T06:57:20;0.50;;;0.50;;
10839;SDS011;5473;42.706;23.328;2022-11-23T06:59:46;0.40;;;0.40;;
10839;SDS011;5473;42.706;23.328;2022-11-23T07:02:14;0.40;;;0.40;;
10839;SDS011;5473;42.706;23.328;2022-11-23T07:04:41;0.40;;;0.40;;
10839;SDS011;5473;42.706;23.328;2022-11-23T07:07:08;0.40;;;0.40;;
10839;SDS011;5473;42.706;23.328;2022-11-23T07:09:35;0.40;;;0.40;;
10839;SDS011;5473;42.706;23.328;2022-11-23T07:12:02;0.40;;;0.40;;
10839;SDS011;5473;42.706;23.328;2022-11-23T07:14:29;0.40;;;0.40;;
10839;SDS011;5473;42.706;23.328;2022-11-23T07:16:55;0.40;;;0.40;;
10839;SDS011;5473;42.706;23.328;2022-11-23T07:19:24;0.30;;;0.30;;
10839;SDS011;5473;42.706;23.328;2022-11-23T07:21:50;0.30;;;0.30;;
10839;SDS011;5473;42.706;23.328;2022-11-23T07:24:18;0.50;;;0.50;;
10839;SDS011;5473;42.706;23.328;2022-11-23T07:26:45;0.50;;;0.50;;
10839;SDS011;5473;42.706;23.328;2022-11-23T07:29:11;0.40;;;0.40;;
10839;SDS011;5473;42.706;23.328;2022-11-23T07:31:38;0.40;;;0.40;;
10839;SDS011;5473;42.706;23.328;2022-11-23T07:34:05;0.43;;;0.43;;
10839;SDS011;5473;42.706;23.328;2022-11-23T07:36:34;0.40;;;0.40;;
10839;SDS011;5473;42.706;23.328;2022-11-23T07:39:01;0.40;;;0.40;;
10839;SDS011;5473;42.706;23.328;2022-11-23T07:41:28;0.30;;;0.30;;
10839;SDS011;5473;42.706;23.328;2022-11-23T07:43:55;0.40;;;0.40;;
10839;SDS011;5473;42.706;23.328;2022-11-23T07:46:22;0.30;;;0.30;;
10839;SDS011;5473;42.706;23.328;2022-11-23T07:48:48;0.33;;;0.33;;
10839;SDS011;5473;42.706;23.328;2022-11-23T07:51:15;0.40;;;0.40;;
10839;SDS011;5473;42.706;23.328;2022-11-23T07:53:45;0.30;;;0.30;;
10839;SDS011;5473;42.706;23.328;2022-11-23T07:56:12;0.20;;;0.20;;
10839;SDS011;5473;42.706;23.328;2022-11-23T07:58:39;0.20;;;0.20;;
10839;SDS011;5473;42.706;23.328;2022-11-23T08:01:06;0.20;;;0.20;;
10839;SDS011;5473;42.706;23.328;2022-11-23T08:03:32;0.10;;;0.10;;
10839;SDS011;5473;42.706;23.328;2022-11-23T08:05:59;0.10;;;0.10;;
10839;SDS011;5473;42.706;23.328;2022-11-23T08:08:26;0.10;;;0.10;;
10839;SDS011;5473;42.706;23.328;2022-11-23T08:10:54;0.10;;;0.10;;
10839;SDS011;5473;42.706;23.328;2022-11-23T08:13:21;0.10;;;0.10;;
10839;SDS011;5473;42.706;23.328;2022-11-23T08:15:48;0.10;;;0.10;;
10839;SDS011;5473;42.706;23.328;2022-11-23T08:18:15;0.10;;;0.10;;
10839;SDS011;5473;42.706;23.328;2022-11-23T08:20:42;0.10;;;0.10;;
10839;SDS011;5473;42.706;23.328;2022-11-23T08:23:09;0.10;;;0.10;;
10839;SDS011;5473;42.706;23.328;2022-11-23T08:25:36;0.10;;;0.10;;
10839;SDS011;5473;42.706;23.328;2022-11-23T08:28:04;0.10;;;0.10;;
10839;SDS011;5473;42.706;23.328;2022-11-23T08:30:31;0.10;;;0.10;;
10839;SDS011;5473;42.706;23.328;2022-11-23T08:33:01;0.10;;;0.10;;
10839;SDS011;5473;42.706;23.328;2022-11-23T08:35:28;0.10;;;0.10;;
10839;SDS011;5473;42.706;23.328;2022-11-23T08:37:55;0.10;;;0.10;;
10839;SDS011;5473;42.706;23.328;2022-11-23T08:40:22;0.10;;;0.10;;
10839;SDS011;5473;42.706;23.328;2022-11-23T08:42:48;0.10;;;0.10;;
10839;SDS011;5473;42.706;23.328;2022-11-23T08:45:17;0.10;;;0.10;;
10839;SDS011;5473;42.706;23.328;2022-11-23T08:47:43;0.10;;;0.10;;
10839;SDS011;5473;42.706;23.328;2022-11-23T08:50:10;0.10;;;0.10;;
10839;SDS011;5473;42.706;23.328;2022-11-23T08:52:37;0.10;;;0.10;;
10839;SDS011;5473;42.706;23.328;2022-11-23T08:55:04;0.10;;;0.10;;
10839;SDS011;5473;42.706;23.328;2022-11-23T08:57:31;0.10;;;0.10;;
10839;SDS011;5473;42.706;23.328;2022-11-23T08:59:58;0.10;;;0.10;;
10839;SDS011;5473;42.706;23.328;2022-11-23T09:02:26;0.00;;;0.00;;
10839;SDS011;5473;42.706;23.328;2022-11-23T09:04:53;0.10;;;0.10;;
10839;SDS011;5473;42.706;23.328;2022-11-23T09:07:20;0.10;;;0.10;;
10839;SDS011;5473;42.706;23.328;2022-11-23T09:09:46;0.10;;;0.10;;
10839;SDS011;5473;42.706;23.328;2022-11-23T09:12:13;0.10;;;0.10;;
10839;SDS011;5473;42.706;23.328;2022-11-23T09:14:40;0.10;;;0.10;;
10839;SDS011;5473;42.706;23.328;2022-11-23T09:17:07;0.10;;;0.10;;
10839;SDS011;5473;42.706;23.328;2022-11-23T09:19:35;0.10;;;0.10;;
10839;SDS011;5473;42.706;23.328;2022-11-23T09:22:01;0.10;;;0.10;;
10839;SDS011;5473;42.706;23.328;2022-11-23T09:24:28;0.10;;;0.10;;
10839;SDS011;5473;42.706;23.328;2022-11-23T09:26:55;0.10;;;0.10;;
10839;SDS011;5473;42.706;23.328;2022-11-23T09:29:22;0.13;;;0.13;;
10839;SDS011;5473;42.706;23.328;2022-11-23T09:31:50;0.10;;;0.10;;
10839;SDS011;5473;42.706;23.328;2022-11-23T09:34:18;0.10;;;0.10;;
10839;SDS011;5473;42.706;23.328;2022-11-23T09:36:46;0.10;;;0.10;;
10839;SDS011;5473;42.706;23.328;2022-11-23T09:39:13;0.10;;;0.10;;
10839;SDS011;5473;42.706;23.328;2022-11-23T09:44:34;0.10;;;0.10;;
10839;SDS011;5473;42.706;23.328;2022-11-23T09:47:22;0.10;;;0.10;;
10839;SDS011;5473;42.706;23.328;2022-11-23T09:49:59;0.10;;;0.10;;
10839;SDS011;5473;42.706;23.328;2022-11-23T09:52:36;0.10;;;0.10;;
10839;SDS011;5473;42.706;23.328;2022-11-23T09:55:09;0.20;;;0.20;;
10839;SDS011;5473;42.706;23.328;2022-11-23T09:57:39;0.20;;;0.20;;
10839;SDS011;5473;42.706;23.328;2022-11-23T10:00:14;0.20;;;0.20;;
10839;SDS011;5473;42.706;23.328;2022-11-23T10:02:44;0.10;;;0.10;;
10839;SDS011;5473;42.706;23.328;2022-11-23T10:05:13;0.10;;;0.10;;
10839;SDS011;5473;42.706;23.328;2022-11-23T10:07:48;0.10;;;0.10;;
10839;SDS011;5473;42.706;23.328;2022-11-23T10:10:29;0.10;;;0.10;;
10839;SDS011;5473;42.706;23.328;2022-11-23T10:13:07;0.10;;;0.10;;
10839;SDS011;5473;42.706;23.328;2022-11-23T10:15:48;0.10;;;0.10;;
10839;SDS011;5473;42.706;23.328;2022-11-23T10:18:25;0.10;;;0.10;;
10839;SDS011;5473;42.706;23.328;2022-11-23T10:20:58;0.10;;;0.10;;
10839;SDS011;5473;42.706;23.328;2022-11-23T10:23:42;0.10;;;0.10;;
10839;SDS011;5473;42.706;23.328;2022-11-23T10:26:16;0.10;;;0.10;;
10839;SDS011;5473;42.706;23.328;2022-11-23T10:28:45;0.10;;;0.10;;
10839;SDS011;5473;42.706;23.328;2022-11-23T10:31:13;0.10;;;0.10;;
10839;SDS011;5473;42.706;23.328;2022-11-23T10:33:45;0.10;;;0.10;;
10839;SDS011;5473;42.706;23.328;2022-11-23T10:36:18;0.10;;;0.10;;
10839;SDS011;5473;42.706;23.328;2022-11-23T10:38:46;0.10;;;0.10;;
10839;SDS011;5473;42.706;23.328;2022-11-23T10:41:16;0.13;;;0.13;;
10839;SDS011;5473;42.706;23.328;2022-11-23T10:43:43;0.10;;;0.10;;
10839;SDS011;5473;42.706;23.328;2022-11-23T10:46:27;0.10;;;0.10;;
10839;SDS011;5473;42.706;23.328;2022-11-23T10:49:07;0.10;;;0.10;;
10839;SDS011;5473;42.706;23.328;2022-11-23T10:51:36;0.10;;;0.10;;
10839;SDS011;5473;42.706;23.328;2022-11-23T10:54:05;0.10;;;0.10;;
10839;SDS011;5473;42.706;23.328;2022-11-23T10:56:44;0.10;;;0.10;;
10839;SDS011;5473;42.706;23.328;2022-11-23T10:59:24;0.10;;;0.10;;
10839;SDS011;5473;42.706;23.328;2022-11-23T11:02:00;0.20;;;0.20;;
10839;SDS011;5473;42.706;23.328;2022-11-23T11:04:35;0.20;;;0.20;;
10839;SDS011;5473;42.706;23.328;2022-11-23T11:07:09;0.20;;;0.20;;
10839;SDS011;5473;42.706;23.328;2022-11-23T11:09:48;0.20;;;0.20;;
10839;SDS011;5473;42.706;23.328;2022-11-23T11:12:16;0.20;;;0.20;;
10839;SDS011;5473;42.706;23.328;2022-11-23T11:14:53;0.20;;;0.20;;
10839;SDS011;5473;42.706;23.328;2022-11-23T11:17:25;0.23;;;0.23;;
10839;SDS011;5473;42.706;23.328;2022-11-23T11:19:53;0.30;;;0.30;;
10839;SDS011;5473;42.706;23.328;2022-11-23T11:25:06;0.30;;;0.30;;
10839;SDS011;5473;42.706;23.328;2022-11-23T11:27:51;0.20;;;0.20;;
10839;SDS011;5473;42.706;23.328;2022-11-23T11:30:19;0.20;;;0.20;;
10839;SDS011;5473;42.706;23.328;2022-11-23T11:32:48;0.20;;;0.20;;
10839;SDS011;5473;42.706;23.328;2022-11-23T11:35:24;0.20;;;0.20;;
10839;SDS011;5473;42.706;23.328;2022-11-23T11:37:54;0.23;;;0.23;;
10839;SDS011;5473;42.706;23.328;2022-11-23T11:40:27;0.20;;;0.20;;
10839;SDS011;5473;42.706;23.328;2022-11-23T11:43:00;0.17;;;0.17;;
10839;SDS011;5473;42.706;23.328;2022-11-23T11:45:35;0.10;;;0.10;;
10839;SDS011;5473;42.706;23.328;2022-11-23T11:48:07;0.20;;;0.20;;
10839;SDS011;5473;42.706;23.328;2022-11-23T11:50:40;0.20;;;0.20;;
10839;SDS011;5473;42.706;23.328;2022-11-23T11:53:14;0.20;;;0.20;;
10839;SDS011;5473;42.706;23.328;2022-11-23T11:55:47;0.20;;;0.20;;
10839;SDS011;5473;42.706;23.328;2022-11-23T11:58:18;0.20;;;0.20;;
10839;SDS011;5473;42.706;23.328;2022-11-23T12:00:47;0.20;;;0.20;;
10839;SDS011;5473;42.706;23.328;2022-11-23T12:03:18;0.10;;;0.10;;
10839;SDS011;5473;42.706;23.328;2022-11-23T12:05:52;0.10;;;0.10;;
10839;SDS011;5473;42.706;23.328;2022-11-23T12:08:29;0.10;;;0.10;;
10839;SDS011;5473;42.706;23.328;2022-11-23T12:11:02;0.10;;;0.10;;
10839;SDS011;5473;42.706;23.328;2022-11-23T12:13:31;0.10;;;0.10;;
10839;SDS011;5473;42.706;23.328;2022-11-23T12:16:01;0.20;;;0.20;;
10839;SDS011;5473;42.706;23.328;2022-11-23T12:18:37;0.10;;;0.10;;
10839;SDS011;5473;42.706;23.328;2022-11-23T12:21:21;0.20;;;0.20;;
10839;SDS011;5473;42.706;23.328;2022-11-23T12:24:03;0.20;;;0.20;;
10839;SDS011;5473;42.706;23.328;2022-11-23T12:26:41;0.20;;;0.20;;
10839;SDS011;5473;42.706;23.328;2022-11-23T12:29:22;0.17;;;0.17;;
10839;SDS011;5473;42.706;23.328;2022-11-23T12:32:02;0.20;;;0.20;;
10839;SDS011;5473;42.706;23.328;2022-11-23T12:37:46;0.20;;;0.20;;
10839;SDS011;5473;42.706;23.328;2022-11-23T12:40:27;0.20;;;0.20;;
10839;SDS011;5473;42.706;23.328;2022-11-23T12:43:04;0.20;;;0.20;;
10839;SDS011;5473;42.706;23.328;2022-11-23T12:51:22;0.30;;;0.30;;
10839;SDS011;5473;42.706;23.328;2022-11-23T12:54:01;0.20;;;0.20;;
10839;SDS011;5473;42.706;23.328;2022-11-23T12:56:50;0.20;;;0.20;;
10839;SDS011;5473;42.706;23.328;2022-11-23T12:59:29;0.20;;;0.20;;
10839;SDS011;5473;42.706;23.328;2022-11-23T13:02:08;0.20;;;0.20;;
10839;SDS011;5473;42.706;23.328;2022-11-23T13:04:45;0.20;;;0.20;;
10839;SDS011;5473;42.706;23.328;2022-11-23T13:07:36;0.20;;;0.20;;
10839;SDS011;5473;42.706;23.328;2022-11-23T13:10:29;0.20;;;0.20;;
10839;SDS011;5473;42.706;23.328;2022-11-23T13:13:22;0.20;;;0.20;;
10839;SDS011;5473;42.706;23.328;2022-11-23T13:16:08;0.20;;;0.20;;
10839;SDS011;5473;42.706;23.328;2022-11-23T13:18:51;0.20;;;0.20;;
10839;SDS011;5473;42.706;23.328;2022-11-23T13:21:33;0.20;;;0.20;;
10839;SDS011;5473;42.706;23.328;2022-11-23T13:24:02;0.20;;;0.20;;
10839;SDS011;5473;42.706;23.328;2022-11-23T13:26:30;0.20;;;0.20;;
10839;SDS011;5473;42.706;23.328;2022-11-23T13:28:57;0.20;;;0.20;;
10839;SDS011;5473;42.706;23.328;2022-11-23T13:31:27;0.20;;;0.20;;
10839;SDS011;5473;42.706;23.328;2022-11-23T13:33:56;0.20;;;0.20;;
10839;SDS011;5473;42.706;23.328;2022-11-23T13:36:34;0.20;;;0.20;;
10839;SDS011;5473;42.706;23.328;2022-11-23T13:42:21;0.20;;;0.20;;
10839;SDS011;5473;42.706;23.328;2022-11-23T13:48:13;0.20;;;0.20;;
10839;SDS011;5473;42.706;23.328;2022-11-23T13:50:59;0.20;;;0.20;;
10839;SDS011;5473;42.706;23.328;2022-11-23T13:53:27;0.17;;;0.17;;
10839;SDS011;5473;42.706;23.328;2022-11-23T13:55:57;0.20;;;0.20;;
10839;SDS011;5473;42.706;23.328;2022-11-23T13:58:41;0.27;;;0.27;;
10839;SDS011;5473;42.706;23.328;2022-11-23T14:04:20;0.30;;;0.30;;
10839;SDS011;5473;42.706;23.328;2022-11-23T14:06:49;0.30;;;0.30;;
10839;SDS011;5473;42.706;23.328;2022-11-23T14:09:22;0.30;;;0.30;;
10839;SDS011;5473;42.706;23.328;2022-11-23T14:11:56;0.20;;;0.20;;
10839;SDS011;5473;42.706;23.328;2022-11-23T14:14:28;0.20;;;0.20;;
10839;SDS011;5473;42.706;23.328;2022-11-23T14:17:19;0.23;;;0.23;;
10839;SDS011;5473;42.706;23.328;2022-11-23T14:20:06;0.30;;;0.30;;
10839;SDS011;5473;42.706;23.328;2022-11-23T14:22:44;0.20;;;0.20;;
10839;SDS011;5473;42.706;23.328;2022-11-23T14:25:27;0.20;;;0.20;;
10839;SDS011;5473;42.706;23.328;2022-11-23T14:28:06;0.30;;;0.30;;
10839;SDS011;5473;42.706;23.328;2022-11-23T14:30:50;0.30;;;0.30;;
10839;SDS011;5473;42.706;23.328;2022-11-23T14:33:32;0.30;;;0.30;;
10839;SDS011;5473;42.706;23.328;2022-11-23T14:36:22;0.30;;;0.30;;
10839;SDS011;5473;42.706;23.328;2022-11-23T14:39:03;0.30;;;0.30;;
10839;SDS011;5473;42.706;23.328;2022-11-23T14:41:53;0.30;;;0.30;;
10839;SDS011;5473;42.706;23.328;2022-11-23T14:44:25;0.30;;;0.30;;
10839;SDS011;5473;42.706;23.328;2022-11-23T14:47:00;0.33;;;0.33;;
10839;SDS011;5473;42.706;23.328;2022-11-23T14:49:27;0.30;;;0.30;;
10839;SDS011;5473;42.706;23.328;2022-11-23T14:51:56;0.30;;;0.30;;
10839;SDS011;5473;42.706;23.328;2022-11-23T14:54:24;0.30;;;0.30;;
10839;SDS011;5473;42.706;23.328;2022-11-23T14:56:54;0.30;;;0.30;;
10839;SDS011;5473;42.706;23.328;2022-11-23T14:59:24;0.40;;;0.40;;
10839;SDS011;5473;42.706;23.328;2022-11-23T15:01:53;0.30;;;0.30;;
10839;SDS011;5473;42.706;23.328;2022-11-23T15:04:24;0.20;;;0.20;;
10839;SDS011;5473;42.706;23.328;2022-11-23T15:07:00;0.30;;;0.30;;
10839;SDS011;5473;42.706;23.328;2022-11-23T15:09:41;0.30;;;0.30;;
10839;SDS011;5473;42.706;23.328;2022-11-23T15:12:22;0.30;;;0.30;;
10839;SDS011;5473;42.706;23.328;2022-11-23T15:14:51;0.40;;;0.40;;
10839;SDS011;5473;42.706;23.328;2022-11-23T15:17:21;0.30;;;0.30;;
10839;SDS011;5473;42.706;23.328;2022-11-23T15:19:51;0.30;;;0.30;;
10839;SDS011;5473;42.706;23.328;2022-11-23T15:22:21;0.30;;;0.30;;
10839;SDS011;5473;42.706;23.328;2022-11-23T15:24:48;0.30;;;0.30;;
10839;SDS011;5473;42.706;23.328;2022-11-23T15:27:16;0.30;;;0.30;;
10839;SDS011;5473;42.706;23.328;2022-11-23T15:29:51;0.37;;;0.37;;